sensor_id;sensor_type;location;lat;lon;timestamp;temperature;humidity
27376;DHT22;14844;51.302;6.354;2023-11-19T00:00:06;12.30;99.90
27376;DHT22;14844;51.302;6.354;2023-11-19T00:02:36;12.30;99.90
27376;DHT22;14844;51.302;6.354;2023-11-19T00:05:02;12.30;99.90
27376;DHT22;14844;51.302;6.354;2023-11-19T00:07:27;12.30;99.90
27376;DHT22;14844;51.302;6.354;2023-11-19T00:09:53;12.40;99.90
27376;DHT22;14844;51.302;6.354;2023-11-19T00:12:20;12.40;99.90
27376;DHT22;14844;51.302;6.354;2023-11-19T00:14:46;12.40;99.90
27376;DHT22;14844;51.302;6.354;2023-11-19T00:17:11;12.50;99.90
27376;DHT22;14844;51.302;6.354;2023-11-19T00:19:37;12.50;99.90
27376;DHT22;14844;51.302;6.354;2023-11-19T00:22:03;12.50;99.90
27376;DHT22;14844;51.302;6.354;2023-11-19T00:24:29;12.60;99.90
27376;DHT22;14844;51.302;6.354;2023-11-19T00:30:18;12.60;99.90
27376;DHT22;14844;51.302;6.354;2023-11-19T00:32:45;12.60;99.90
27376;DHT22;14844;51.302;6.354;2023-11-19T00:35:11;12.50;99.90
27376;DHT22;14844;51.302;6.354;2023-11-19T00:37:37;12.50;99.90
27376;DHT22;14844;51.302;6.354;2023-11-19T00:40:03;12.40;99.90
27376;DHT22;14844;51.302;6.354;2023-11-19T00:42:31;12.40;99.90
27376;DHT22;14844;51.302;6.354;2023-11-19T00:44:56;12.50;99.90
27376;DHT22;14844;51.302;6.354;2023-11-19T00:47:23;12.40;99.90
27376;DHT22;14844;51.302;6.354;2023-11-19T00:49:49;12.40;99.90
27376;DHT22;14844;51.302;6.354;2023-11-19T00:52:16;12.40;99.90
27376;DHT22;14844;51.302;6.354;2023-11-19T00:54:41;12.40;99.90
27376;DHT22;14844;51.302;6.354;2023-11-19T00:57:07;12.40;99.90
27376;DHT22;14844;51.302;6.354;2023-11-19T00:59:32;12.40;99.90
27376;DHT22;14844;51.302;6.354;2023-11-19T01:01:58;12.40;99.90
27376;DHT22;14844;51.302;6.354;2023-11-19T01:04:28;12.40;99.90
27376;DHT22;14844;51.302;6.354;2023-11-19T01:06:54;12.40;99.90
27376;DHT22;14844;51.302;6.354;2023-11-19T01:09:20;12.50;99.90
27376;DHT22;14844;51.302;6.354;2023-11-19T01:11:45;12.50;99.90
27376;DHT22;14844;51.302;6.354;2023-11-19T01:14:11;12.50;99.90
27376;DHT22;14844;51.302;6.354;2023-11-19T01:16:36;12.50;99.90
27376;DHT22;14844;51.302;6.354;2023-11-19T01:19:02;12.50;99.90
27376;DHT22;14844;51.302;6.354;2023-11-19T01:21:30;12.50;99.90
27376;DHT22;14844;51.302;6.354;2023-11-19T01:23:57;12.50;99.90
27376;DHT22;14844;51.302;6.354;2023-11-19T01:26:22;12.50;99.90
27376;DHT22;14844;51.302;6.354;2023-11-19T01:28:48;12.50;99.90
27376;DHT22;14844;51.302;6.354;2023-11-19T01:31:17;12.50;99.90
27376;DHT22;14844;51.302;6.354;2023-11-19T01:33:42;12.50;99.90
27376;DHT22;14844;51.302;6.354;2023-11-19T01:36:08;12.50;99.90
27376;DHT22;14844;51.302;6.354;2023-11-19T01:38:35;12.50;99.90
27376;DHT22;14844;51.302;6.354;2023-11-19T01:41:01;12.50;99.90
27376;DHT22;14844;51.302;6.354;2023-11-19T01:43:36;12.60;99.90
27376;DHT22;14844;51.302;6.354;2023-11-19T01:46:04;12.60;99.90
27376;DHT22;14844;51.302;6.354;2023-11-19T01:48:31;12.60;99.90
27376;DHT22;14844;51.302;6.354;2023-11-19T01:50:58;12.60;99.90
27376;DHT22;14844;51.302;6.354;2023-11-19T01:53:24;12.60;99.90
27376;DHT22;14844;51.302;6.354;2023-11-19T01:55:50;12.60;99.90
27376;DHT22;14844;51.302;6.354;2023-11-19T01:58:17;12.60;99.90
27376;DHT22;14844;51.302;6.354;2023-11-19T02:00:44;12.60;99.90
27376;DHT22;14844;51.302;6.354;2023-11-19T02:03:10;12.60;99.90
27376;DHT22;14844;51.302;6.354;2023-11-19T02:05:37;12.60;99.90
27376;DHT22;14844;51.302;6.354;2023-11-19T02:08:04;12.70;99.90
27376;DHT22;14844;51.302;6.354;2023-11-19T02:10:29;12.70;99.90
27376;DHT22;14844;51.302;6.354;2023-11-19T02:12:57;12.60;99.90
27376;DHT22;14844;51.302;6.354;2023-11-19T02:15:23;12.60;99.90
27376;DHT22;14844;51.302;6.354;2023-11-19T02:17:50;12.70;99.90
27376;DHT22;14844;51.302;6.354;2023-11-19T02:20:16;12.60;99.90
27376;DHT22;14844;51.302;6.354;2023-11-19T02:22:48;12.60;99.90
27376;DHT22;14844;51.302;6.354;2023-11-19T02:25:29;12.60;99.90
27376;DHT22;14844;51.302;6.354;2023-11-19T02:28:02;12.60;99.90
27376;DHT22;14844;51.302;6.354;2023-11-19T02:30:28;12.60;99.90
27376;DHT22;14844;51.302;6.354;2023-11-19T02:32:55;12.60;99.90
27376;DHT22;14844;51.302;6.354;2023-11-19T02:35:26;12.60;99.90
27376;DHT22;14844;51.302;6.354;2023-11-19T02:37:52;12.60;99.90
27376;DHT22;14844;51.302;6.354;2023-11-19T02:40:17;12.60;99.90
27376;DHT22;14844;51.302;6.354;2023-11-19T02:42:43;12.60;99.90
27376;DHT22;14844;51.302;6.354;2023-11-19T02:45:09;12.60;99.90
27376;DHT22;14844;51.302;6.354;2023-11-19T02:47:41;12.70;99.90
27376;DHT22;14844;51.302;6.354;2023-11-19T02:50:13;12.60;99.90
27376;DHT22;14844;51.302;6.354;2023-11-19T02:52:41;12.60;99.90
27376;DHT22;14844;51.302;6.354;2023-11-19T02:55:09;12.60;99.90
27376;DHT22;14844;51.302;6.354;2023-11-19T02:57:41;12.60;99.90
27376;DHT22;14844;51.302;6.354;2023-11-19T03:00:17;12.50;99.90
27376;DHT22;14844;51.302;6.354;2023-11-19T03:02:44;12.60;99.90
27376;DHT22;14844;51.302;6.354;2023-11-19T03:05:15;12.60;99.90
27376;DHT22;14844;51.302;6.354;2023-11-19T03:07:50;12.50;99.90
27376;DHT22;14844;51.302;6.354;2023-11-19T03:17:00;12.60;99.90
27376;DHT22;14844;51.302;6.354;2023-11-19T03:20:10;12.60;99.90
27376;DHT22;14844;51.302;6.354;2023-11-19T03:22:53;12.60;99.90
27376;DHT22;14844;51.302;6.354;2023-11-19T03:25:18;12.70;99.90
27376;DHT22;14844;51.302;6.354;2023-11-19T03:27:44;12.60;99.90
27376;DHT22;14844;51.302;6.354;2023-11-19T03:30:10;12.60;99.90
27376;DHT22;14844;51.302;6.354;2023-11-19T03:32:36;12.50;99.90
27376;DHT22;14844;51.302;6.354;2023-11-19T03:35:02;12.50;99.90
27376;DHT22;14844;51.302;6.354;2023-11-19T03:37:30;12.40;99.90
27376;DHT22;14844;51.302;6.354;2023-11-19T03:39:57;12.40;99.90
27376;DHT22;14844;51.302;6.354;2023-11-19T03:42:28;12.40;99.90
27376;DHT22;14844;51.302;6.354;2023-11-19T03:44:56;12.40;99.90
27376;DHT22;14844;51.302;6.354;2023-11-19T03:47:21;12.40;99.90
27376;DHT22;14844;51.302;6.354;2023-11-19T03:49:50;12.40;99.90
27376;DHT22;14844;51.302;6.354;2023-11-19T03:52:16;12.40;99.90
27376;DHT22;14844;51.302;6.354;2023-11-19T03:54:42;12.40;99.90
27376;DHT22;14844;51.302;6.354;2023-11-19T03:57:08;12.40;99.90
27376;DHT22;14844;51.302;6.354;2023-11-19T03:59:36;12.40;99.90
27376;DHT22;14844;51.302;6.354;2023-11-19T04:02:02;12.30;99.90
27376;DHT22;14844;51.302;6.354;2023-11-19T04:04:28;12.30;99.90
27376;DHT22;14844;51.302;6.354;2023-11-19T04:06:55;12.30;99.90
27376;DHT22;14844;51.302;6.354;2023-11-19T04:09:21;12.20;99.90
27376;DHT22;14844;51.302;6.354;2023-11-19T04:11:46;12.20;99.90
27376;DHT22;14844;51.302;6.354;2023-11-19T04:14:13;12.10;99.90
27376;DHT22;14844;51.302;6.354;2023-11-19T04:16:39;12.10;99.90
27376;DHT22;14844;51.302;6.354;2023-11-19T04:19:05;12.10;99.90
27376;DHT22;14844;51.302;6.354;2023-11-19T04:21:32;12.20;99.90
27376;DHT22;14844;51.302;6.354;2023-11-19T04:23:57;12.30;99.90
27376;DHT22;14844;51.302;6.354;2023-11-19T04:26:23;12.40;99.90
27376;DHT22;14844;51.302;6.354;2023-11-19T04:28:48;12.30;99.90
27376;DHT22;14844;51.302;6.354;2023-11-19T04:31:15;12.30;99.90
27376;DHT22;14844;51.302;6.354;2023-11-19T04:33:44;12.20;99.90
27376;DHT22;14844;51.302;6.354;2023-11-19T04:36:10;12.20;99.90
27376;DHT22;14844;51.302;6.354;2023-11-19T04:38:37;12.10;99.90
27376;DHT22;14844;51.302;6.354;2023-11-19T04:41:04;12.10;99.90
27376;DHT22;14844;51.302;6.354;2023-11-19T04:43:31;12.10;99.90
27376;DHT22;14844;51.302;6.354;2023-11-19T04:45:57;12.20;99.90
27376;DHT22;14844;51.302;6.354;2023-11-19T04:48:23;12.20;99.90
27376;DHT22;14844;51.302;6.354;2023-11-19T04:50:49;12.20;99.90
27376;DHT22;14844;51.302;6.354;2023-11-19T04:53:16;12.30;99.90
27376;DHT22;14844;51.302;6.354;2023-11-19T04:55:42;12.30;99.90
27376;DHT22;14844;51.302;6.354;2023-11-19T04:58:08;12.40;99.90
27376;DHT22;14844;51.302;6.354;2023-11-19T05:00:34;12.30;99.90
27376;DHT22;14844;51.302;6.354;2023-11-19T05:03:00;12.30;99.90
27376;DHT22;14844;51.302;6.354;2023-11-19T05:05:25;12.30;99.90
27376;DHT22;14844;51.302;6.354;2023-11-19T05:07:51;12.30;99.90
27376;DHT22;14844;51.302;6.354;2023-11-19T05:10:16;12.30;99.90
27376;DHT22;14844;51.302;6.354;2023-11-19T05:12:42;12.30;99.90
27376;DHT22;14844;51.302;6.354;2023-11-19T05:15:08;12.40;99.90
27376;DHT22;14844;51.302;6.354;2023-11-19T05:17:33;12.40;99.90
27376;DHT22;14844;51.302;6.354;2023-11-19T05:19:59;12.40;99.90
27376;DHT22;14844;51.302;6.354;2023-11-19T05:22:25;12.40;99.90
27376;DHT22;14844;51.302;6.354;2023-11-19T05:24:51;12.40;99.90
27376;DHT22;14844;51.302;6.354;2023-11-19T05:27:17;12.40;99.90
27376;DHT22;14844;51.302;6.354;2023-11-19T05:29:43;12.50;99.90
27376;DHT22;14844;51.302;6.354;2023-11-19T05:32:09;12.40;99.90
27376;DHT22;14844;51.302;6.354;2023-11-19T05:34:35;12.40;99.90
27376;DHT22;14844;51.302;6.354;2023-11-19T05:37:00;12.50;99.90
27376;DHT22;14844;51.302;6.354;2023-11-19T05:39:27;12.50;99.90
27376;DHT22;14844;51.302;6.354;2023-11-19T05:41:52;12.50;99.90
27376;DHT22;14844;51.302;6.354;2023-11-19T05:44:18;12.50;99.90
27376;DHT22;14844;51.302;6.354;2023-11-19T05:46:44;12.60;99.90
27376;DHT22;14844;51.302;6.354;2023-11-19T05:49:11;12.50;99.90
27376;DHT22;14844;51.302;6.354;2023-11-19T05:51:40;12.50;99.90
27376;DHT22;14844;51.302;6.354;2023-11-19T05:54:10;12.40;99.90
27376;DHT22;14844;51.302;6.354;2023-11-19T05:56:54;12.50;99.90
27376;DHT22;14844;51.302;6.354;2023-11-19T05:59:20;12.50;99.90
27376;DHT22;14844;51.302;6.354;2023-11-19T06:01:48;12.50;99.90
27376;DHT22;14844;51.302;6.354;2023-11-19T06:04:14;12.50;99.90
27376;DHT22;14844;51.302;6.354;2023-11-19T06:06:41;12.40;99.90
27376;DHT22;14844;51.302;6.354;2023-11-19T06:09:07;12.40;99.90
27376;DHT22;14844;51.302;6.354;2023-11-19T06:11:33;12.40;99.90
27376;DHT22;14844;51.302;6.354;2023-11-19T06:14:01;12.30;99.90
27376;DHT22;14844;51.302;6.354;2023-11-19T06:16:27;12.30;99.90
27376;DHT22;14844;51.302;6.354;2023-11-19T06:18:52;12.30;99.90
27376;DHT22;14844;51.302;6.354;2023-11-19T06:21:19;12.30;99.90
27376;DHT22;14844;51.302;6.354;2023-11-19T06:23:44;12.20;99.90
27376;DHT22;14844;51.302;6.354;2023-11-19T06:26:10;12.20;99.90
27376;DHT22;14844;51.302;6.354;2023-11-19T06:28:35;12.20;99.90
27376;DHT22;14844;51.302;6.354;2023-11-19T06:31:01;12.10;99.90
27376;DHT22;14844;51.302;6.354;2023-11-19T06:33:28;12.10;99.90
27376;DHT22;14844;51.302;6.354;2023-11-19T06:35:54;12.10;99.90
27376;DHT22;14844;51.302;6.354;2023-11-19T06:38:20;12.00;99.90
27376;DHT22;14844;51.302;6.354;2023-11-19T06:40:45;12.00;99.90
27376;DHT22;14844;51.302;6.354;2023-11-19T06:43:11;11.90;99.90
27376;DHT22;14844;51.302;6.354;2023-11-19T06:45:36;11.90;99.90
27376;DHT22;14844;51.302;6.354;2023-11-19T06:48:05;11.90;99.90
27376;DHT22;14844;51.302;6.354;2023-11-19T06:50:31;11.80;99.90
27376;DHT22;14844;51.302;6.354;2023-11-19T06:52:57;11.70;99.90
27376;DHT22;14844;51.302;6.354;2023-11-19T06:55:23;11.70;99.90
27376;DHT22;14844;51.302;6.354;2023-11-19T06:57:48;11.70;99.90
27376;DHT22;14844;51.302;6.354;2023-11-19T07:00:14;11.70;99.90
27376;DHT22;14844;51.302;6.354;2023-11-19T07:02:39;11.70;99.90
27376;DHT22;14844;51.302;6.354;2023-11-19T07:05:05;11.70;99.90
27376;DHT22;14844;51.302;6.354;2023-11-19T07:07:32;11.60;99.90
27376;DHT22;14844;51.302;6.354;2023-11-19T07:09:58;11.60;99.90
27376;DHT22;14844;51.302;6.354;2023-11-19T07:12:24;11.60;99.90
27376;DHT22;14844;51.302;6.354;2023-11-19T07:14:52;11.60;99.90
27376;DHT22;14844;51.302;6.354;2023-11-19T07:17:18;11.60;99.90
27376;DHT22;14844;51.302;6.354;2023-11-19T07:19:46;11.60;99.90
27376;DHT22;14844;51.302;6.354;2023-11-19T07:22:11;11.50;99.90
27376;DHT22;14844;51.302;6.354;2023-11-19T07:24:39;11.60;99.90
27376;DHT22;14844;51.302;6.354;2023-11-19T07:27:06;11.60;99.90
27376;DHT22;14844;51.302;6.354;2023-11-19T07:29:32;11.60;99.90
27376;DHT22;14844;51.302;6.354;2023-11-19T07:31:57;11.60;99.90
27376;DHT22;14844;51.302;6.354;2023-11-19T07:34:24;11.60;99.90
27376;DHT22;14844;51.302;6.354;2023-11-19T07:36:57;11.60;99.90
27376;DHT22;14844;51.302;6.354;2023-11-19T07:39:27;11.70;99.90
27376;DHT22;14844;51.302;6.354;2023-11-19T07:41:53;11.70;99.90
27376;DHT22;14844;51.302;6.354;2023-11-19T07:44:33;11.70;99.90
27376;DHT22;14844;51.302;6.354;2023-11-19T07:47:01;11.70;99.90
27376;DHT22;14844;51.302;6.354;2023-11-19T07:49:26;11.70;99.90
27376;DHT22;14844;51.302;6.354;2023-11-19T07:51:52;11.70;99.90
27376;DHT22;14844;51.302;6.354;2023-11-19T07:54:18;11.80;99.90
27376;DHT22;14844;51.302;6.354;2023-11-19T07:56:43;11.80;99.90
27376;DHT22;14844;51.302;6.354;2023-11-19T07:59:09;11.90;99.90
27376;DHT22;14844;51.302;6.354;2023-11-19T08:01:34;11.90;99.90
27376;DHT22;14844;51.302;6.354;2023-11-19T08:04:00;12.00;99.90
27376;DHT22;14844;51.302;6.354;2023-11-19T08:06:27;12.10;99.90
27376;DHT22;14844;51.302;6.354;2023-11-19T08:08:53;12.20;99.90
27376;DHT22;14844;51.302;6.354;2023-11-19T08:11:18;12.30;99.90
27376;DHT22;14844;51.302;6.354;2023-11-19T08:13:45;12.30;99.90
27376;DHT22;14844;51.302;6.354;2023-11-19T08:16:10;12.30;99.90
27376;DHT22;14844;51.302;6.354;2023-11-19T08:18:36;12.20;99.90
27376;DHT22;14844;51.302;6.354;2023-11-19T08:21:02;12.30;99.90
27376;DHT22;14844;51.302;6.354;2023-11-19T08:23:30;12.30;99.90
27376;DHT22;14844;51.302;6.354;2023-11-19T08:25:55;12.30;99.90
27376;DHT22;14844;51.302;6.354;2023-11-19T08:28:21;12.30;99.90
27376;DHT22;14844;51.302;6.354;2023-11-19T08:30:47;12.30;99.90
27376;DHT22;14844;51.302;6.354;2023-11-19T08:33:12;12.30;99.90
27376;DHT22;14844;51.302;6.354;2023-11-19T08:35:38;12.40;99.90
27376;DHT22;14844;51.302;6.354;2023-11-19T08:38:03;12.40;99.90
27376;DHT22;14844;51.302;6.354;2023-11-19T08:40:29;12.40;99.90
27376;DHT22;14844;51.302;6.354;2023-11-19T08:42:55;12.50;99.90
27376;DHT22;14844;51.302;6.354;2023-11-19T08:45:21;12.50;99.90
27376;DHT22;14844;51.302;6.354;2023-11-19T08:47:47;12.50;99.90
27376;DHT22;14844;51.302;6.354;2023-11-19T08:50:13;12.50;99.90
27376;DHT22;14844;51.302;6.354;2023-11-19T08:52:38;12.50;99.90
27376;DHT22;14844;51.302;6.354;2023-11-19T08:55:04;12.60;99.90
27376;DHT22;14844;51.302;6.354;2023-11-19T08:57:35;12.70;99.90
27376;DHT22;14844;51.302;6.354;2023-11-19T09:00:00;12.80;99.90
27376;DHT22;14844;51.302;6.354;2023-11-19T09:02:26;12.90;99.90
27376;DHT22;14844;51.302;6.354;2023-11-19T09:04:52;12.90;99.90
27376;DHT22;14844;51.302;6.354;2023-11-19T09:07:17;12.90;99.90
27376;DHT22;14844;51.302;6.354;2023-11-19T09:09:43;13.00;99.90
27376;DHT22;14844;51.302;6.354;2023-11-19T09:12:08;13.10;99.90
27376;DHT22;14844;51.302;6.354;2023-11-19T09:14:34;13.10;99.90
27376;DHT22;14844;51.302;6.354;2023-11-19T09:16:59;13.20;99.90
27376;DHT22;14844;51.302;6.354;2023-11-19T09:19:25;13.30;99.90
27376;DHT22;14844;51.302;6.354;2023-11-19T09:21:54;13.30;99.90
27376;DHT22;14844;51.302;6.354;2023-11-19T09:24:20;13.40;99.90
27376;DHT22;14844;51.302;6.354;2023-11-19T09:26:48;13.30;99.90
27376;DHT22;14844;51.302;6.354;2023-11-19T09:29:14;13.30;99.90
27376;DHT22;14844;51.302;6.354;2023-11-19T09:31:42;13.30;99.90
27376;DHT22;14844;51.302;6.354;2023-11-19T09:34:07;13.40;99.90
27376;DHT22;14844;51.302;6.354;2023-11-19T09:36:33;13.40;99.90
27376;DHT22;14844;51.302;6.354;2023-11-19T09:38:59;13.50;99.90
27376;DHT22;14844;51.302;6.354;2023-11-19T09:41:26;13.60;99.90
27376;DHT22;14844;51.302;6.354;2023-11-19T09:43:53;13.60;99.90
27376;DHT22;14844;51.302;6.354;2023-11-19T09:46:19;13.60;99.90
27376;DHT22;14844;51.302;6.354;2023-11-19T09:48:46;13.70;99.90
27376;DHT22;14844;51.302;6.354;2023-11-19T09:51:13;13.70;99.90
27376;DHT22;14844;51.302;6.354;2023-11-19T09:53:39;13.60;99.90
27376;DHT22;14844;51.302;6.354;2023-11-19T09:56:05;13.60;99.90
27376;DHT22;14844;51.302;6.354;2023-11-19T09:58:32;13.70;99.90
27376;DHT22;14844;51.302;6.354;2023-11-19T10:00:58;13.80;99.90
27376;DHT22;14844;51.302;6.354;2023-11-19T10:03:25;13.80;99.90
27376;DHT22;14844;51.302;6.354;2023-11-19T10:05:52;13.70;99.90
27376;DHT22;14844;51.302;6.354;2023-11-19T10:08:18;13.50;99.90
27376;DHT22;14844;51.302;6.354;2023-11-19T10:10:44;13.50;99.90
27376;DHT22;14844;51.302;6.354;2023-11-19T10:13:10;13.60;99.90
27376;DHT22;14844;51.302;6.354;2023-11-19T10:15:36;13.70;99.90
27376;DHT22;14844;51.302;6.354;2023-11-19T10:18:03;13.80;99.90
27376;DHT22;14844;51.302;6.354;2023-11-19T10:20:36;13.70;99.90
27376;DHT22;14844;51.302;6.354;2023-11-19T10:23:02;13.60;99.90
27376;DHT22;14844;51.302;6.354;2023-11-19T10:25:28;13.60;99.90
27376;DHT22;14844;51.302;6.354;2023-11-19T10:27:55;13.80;99.90
27376;DHT22;14844;51.302;6.354;2023-11-19T10:30:22;13.70;99.90
27376;DHT22;14844;51.302;6.354;2023-11-19T10:33:11;13.70;99.90
27376;DHT22;14844;51.302;6.354;2023-11-19T10:35:57;13.60;99.90
27376;DHT22;14844;51.302;6.354;2023-11-19T10:38:24;13.70;99.90
27376;DHT22;14844;51.302;6.354;2023-11-19T10:40:51;13.80;99.90
27376;DHT22;14844;51.302;6.354;2023-11-19T10:43:18;14.00;99.90
27376;DHT22;14844;51.302;6.354;2023-11-19T10:45:44;14.00;99.90
27376;DHT22;14844;51.302;6.354;2023-11-19T10:48:10;14.10;99.90
27376;DHT22;14844;51.302;6.354;2023-11-19T10:50:37;14.00;99.90
27376;DHT22;14844;51.302;6.354;2023-11-19T10:53:04;14.10;99.90
27376;DHT22;14844;51.302;6.354;2023-11-19T10:55:34;14.10;99.90
27376;DHT22;14844;51.302;6.354;2023-11-19T10:58:07;14.10;99.90
27376;DHT22;14844;51.302;6.354;2023-11-19T11:03:18;14.10;99.90
27376;DHT22;14844;51.302;6.354;2023-11-19T11:05:48;14.10;99.90
27376;DHT22;14844;51.302;6.354;2023-11-19T11:08:14;14.10;99.90
27376;DHT22;14844;51.302;6.354;2023-11-19T11:10:43;14.10;99.90
27376;DHT22;14844;51.302;6.354;2023-11-19T11:13:10;14.10;99.90
27376;DHT22;14844;51.302;6.354;2023-11-19T11:15:37;14.20;99.90
27376;DHT22;14844;51.302;6.354;2023-11-19T11:18:08;14.20;99.90
27376;DHT22;14844;51.302;6.354;2023-11-19T11:20:34;14.30;99.90
27376;DHT22;14844;51.302;6.354;2023-11-19T11:23:18;14.40;99.90
27376;DHT22;14844;51.302;6.354;2023-11-19T11:29:01;14.20;99.90
27376;DHT22;14844;51.302;6.354;2023-11-19T11:31:45;14.00;99.90
27376;DHT22;14844;51.302;6.354;2023-11-19T11:37:11;14.10;99.90
27376;DHT22;14844;51.302;6.354;2023-11-19T11:39:40;14.30;99.90
27376;DHT22;14844;51.302;6.354;2023-11-19T11:50:18;15.00;99.90
27376;DHT22;14844;51.302;6.354;2023-11-19T11:55:53;15.00;99.90
27376;DHT22;14844;51.302;6.354;2023-11-19T11:58:21;14.90;99.90
27376;DHT22;14844;51.302;6.354;2023-11-19T12:00:48;14.90;99.90
27376;DHT22;14844;51.302;6.354;2023-11-19T12:03:14;15.10;99.90
27376;DHT22;14844;51.302;6.354;2023-11-19T12:05:47;14.90;99.90
27376;DHT22;14844;51.302;6.354;2023-11-19T12:08:14;14.80;99.90
27376;DHT22;14844;51.302;6.354;2023-11-19T12:10:49;14.60;99.90
27376;DHT22;14844;51.302;6.354;2023-11-19T12:13:16;14.50;99.90
27376;DHT22;14844;51.302;6.354;2023-11-19T12:18:23;14.20;99.90
27376;DHT22;14844;51.302;6.354;2023-11-19T12:20:48;14.00;99.90
27376;DHT22;14844;51.302;6.354;2023-11-19T12:23:14;13.90;99.90
27376;DHT22;14844;51.302;6.354;2023-11-19T12:25:41;13.60;99.90
27376;DHT22;14844;51.302;6.354;2023-11-19T12:33:11;12.20;99.90
27376;DHT22;14844;51.302;6.354;2023-11-19T12:49:31;13.10;99.90
27376;DHT22;14844;51.302;6.354;2023-11-19T12:56:13;13.60;99.90
27376;DHT22;14844;51.302;6.354;2023-11-19T12:59:28;13.70;99.90
27376;DHT22;14844;51.302;6.354;2023-11-19T13:01:56;13.80;99.90
27376;DHT22;14844;51.302;6.354;2023-11-19T13:04:22;13.90;99.90
27376;DHT22;14844;51.302;6.354;2023-11-19T13:06:49;14.00;99.90
27376;DHT22;14844;51.302;6.354;2023-11-19T13:09:27;14.00;99.90
27376;DHT22;14844;51.302;6.354;2023-11-19T13:11:54;14.00;99.90
27376;DHT22;14844;51.302;6.354;2023-11-19T13:14:20;14.20;99.90
27376;DHT22;14844;51.302;6.354;2023-11-19T13:16:46;14.30;99.90
27376;DHT22;14844;51.302;6.354;2023-11-19T13:19:13;14.40;99.90
27376;DHT22;14844;51.302;6.354;2023-11-19T13:21:39;14.50;99.90
27376;DHT22;14844;51.302;6.354;2023-11-19T13:24:08;14.40;99.90
27376;DHT22;14844;51.302;6.354;2023-11-19T13:26:34;14.40;99.90
27376;DHT22;14844;51.302;6.354;2023-11-19T13:29:00;14.40;99.90
27376;DHT22;14844;51.302;6.354;2023-11-19T13:31:26;14.20;99.90
27376;DHT22;14844;51.302;6.354;2023-11-19T13:33:51;14.00;99.90
27376;DHT22;14844;51.302;6.354;2023-11-19T13:36:17;14.00;99.90
27376;DHT22;14844;51.302;6.354;2023-11-19T13:38:42;13.80;99.90
27376;DHT22;14844;51.302;6.354;2023-11-19T13:41:10;13.70;99.90
27376;DHT22;14844;51.302;6.354;2023-11-19T13:43:37;13.60;99.90
27376;DHT22;14844;51.302;6.354;2023-11-19T13:46:03;13.40;99.90
27376;DHT22;14844;51.302;6.354;2023-11-19T13:48:29;13.10;99.90
27376;DHT22;14844;51.302;6.354;2023-11-19T13:50:55;12.80;99.90
27376;DHT22;14844;51.302;6.354;2023-11-19T13:53:21;12.70;99.90
27376;DHT22;14844;51.302;6.354;2023-11-19T13:55:47;12.70;99.90
27376;DHT22;14844;51.302;6.354;2023-11-19T13:58:15;12.70;99.90
27376;DHT22;14844;51.302;6.354;2023-11-19T14:00:41;12.80;99.90
27376;DHT22;14844;51.302;6.354;2023-11-19T14:03:08;12.70;99.90
27376;DHT22;14844;51.302;6.354;2023-11-19T14:05:34;12.70;99.90
27376;DHT22;14844;51.302;6.354;2023-11-19T14:08:00;12.70;99.90
27376;DHT22;14844;51.302;6.354;2023-11-19T14:10:26;12.60;99.90
27376;DHT22;14844;51.302;6.354;2023-11-19T14:12:52;12.50;99.90
27376;DHT22;14844;51.302;6.354;2023-11-19T14:15:18;12.40;99.90
27376;DHT22;14844;51.302;6.354;2023-11-19T14:17:43;12.30;99.90
27376;DHT22;14844;51.302;6.354;2023-11-19T14:20:09;12.20;99.90
27376;DHT22;14844;51.302;6.354;2023-11-19T14:22:47;11.90;99.90
27376;DHT22;14844;51.302;6.354;2023-11-19T14:25:14;11.70;99.90
27376;DHT22;14844;51.302;6.354;2023-11-19T14:27:42;11.50;99.90
27376;DHT22;14844;51.302;6.354;2023-11-19T14:30:09;11.40;99.90
27376;DHT22;14844;51.302;6.354;2023-11-19T14:32:42;11.40;99.90
27376;DHT22;14844;51.302;6.354;2023-11-19T14:35:10;11.30;99.90
27376;DHT22;14844;51.302;6.354;2023-11-19T14:37:35;11.30;99.90
27376;DHT22;14844;51.302;6.354;2023-11-19T14:40:01;11.30;99.90
27376;DHT22;14844;51.302;6.354;2023-11-19T14:42:30;11.30;99.90
27376;DHT22;14844;51.302;6.354;2023-11-19T14:44:55;11.30;99.90
27376;DHT22;14844;51.302;6.354;2023-11-19T14:47:21;11.20;99.90
27376;DHT22;14844;51.302;6.354;2023-11-19T14:49:47;11.20;99.90
27376;DHT22;14844;51.302;6.354;2023-11-19T14:52:13;11.30;99.90
27376;DHT22;14844;51.302;6.354;2023-11-19T14:54:39;11.30;99.90
27376;DHT22;14844;51.302;6.354;2023-11-19T14:57:05;11.30;99.90
27376;DHT22;14844;51.302;6.354;2023-11-19T14:59:33;11.40;99.90
27376;DHT22;14844;51.302;6.354;2023-11-19T15:01:59;11.40;99.90
27376;DHT22;14844;51.302;6.354;2023-11-19T15:04:26;11.40;99.90
27376;DHT22;14844;51.302;6.354;2023-11-19T15:06:52;11.40;99.90
27376;DHT22;14844;51.302;6.354;2023-11-19T15:09:17;11.40;99.90
27376;DHT22;14844;51.302;6.354;2023-11-19T15:11:47;11.40;99.90
27376;DHT22;14844;51.302;6.354;2023-11-19T15:14:16;11.40;99.90
27376;DHT22;14844;51.302;6.354;2023-11-19T15:16:45;11.40;99.90
27376;DHT22;14844;51.302;6.354;2023-11-19T15:19:11;11.40;99.90
27376;DHT22;14844;51.302;6.354;2023-11-19T15:21:38;11.40;99.90
27376;DHT22;14844;51.302;6.354;2023-11-19T15:24:04;11.40;99.90
27376;DHT22;14844;51.302;6.354;2023-11-19T15:26:33;11.40;99.90
27376;DHT22;14844;51.302;6.354;2023-11-19T15:28:59;11.50;99.90
27376;DHT22;14844;51.302;6.354;2023-11-19T15:31:24;11.50;99.90
27376;DHT22;14844;51.302;6.354;2023-11-19T15:33:50;11.50;99.90
27376;DHT22;14844;51.302;6.354;2023-11-19T15:36:16;11.50;99.90
27376;DHT22;14844;51.302;6.354;2023-11-19T15:38:43;11.50;99.90
27376;DHT22;14844;51.302;6.354;2023-11-19T15:41:08;11.40;99.90
27376;DHT22;14844;51.302;6.354;2023-11-19T15:43:34;11.40;99.90
27376;DHT22;14844;51.302;6.354;2023-11-19T15:45:59;11.50;99.90
27376;DHT22;14844;51.302;6.354;2023-11-19T15:48:25;11.50;99.90
27376;DHT22;14844;51.302;6.354;2023-11-19T15:50:53;11.40;99.90
27376;DHT22;14844;51.302;6.354;2023-11-19T15:53:19;11.40;99.90
27376;DHT22;14844;51.302;6.354;2023-11-19T15:55:45;11.40;99.90
27376;DHT22;14844;51.302;6.354;2023-11-19T15:58:10;11.30;99.90
27376;DHT22;14844;51.302;6.354;2023-11-19T16:00:36;11.40;99.90
27376;DHT22;14844;51.302;6.354;2023-11-19T16:03:02;11.30;99.90
27376;DHT22;14844;51.302;6.354;2023-11-19T16:05:28;11.30;99.90
27376;DHT22;14844;51.302;6.354;2023-11-19T16:07:53;11.30;99.90
27376;DHT22;14844;51.302;6.354;2023-11-19T16:10:19;11.20;99.90
27376;DHT22;14844;51.302;6.354;2023-11-19T16:12:47;11.20;99.90
27376;DHT22;14844;51.302;6.354;2023-11-19T16:15:13;11.20;99.90
27376;DHT22;14844;51.302;6.354;2023-11-19T16:17:40;11.20;99.90
27376;DHT22;14844;51.302;6.354;2023-11-19T16:20:07;11.20;99.90
27376;DHT22;14844;51.302;6.354;2023-11-19T16:22:37;11.20;99.90
27376;DHT22;14844;51.302;6.354;2023-11-19T16:25:03;11.20;99.90